WetterOnline ( https://www.wetteronline.de )

Wetter aktuell Tetschen

Aktuelles Wetter: Lichtenhain/Mittelndorf (352m)

6-stündlich | Neueste Meldungen
Ortszeit Temperatur Wetter
Sa, 02.03. 1:00 8.9° C bedeckt
Fr, 01.03. 19:00 10.2° C bedeckt
Fr, 01.03. 13:00 10.4° C bewölkt
Fr, 01.03. 7:00 7.7° C wolkig
Fr, 01.03. 1:00 6.9° C wolkig
Do, 29.02. 19:00 5.9° C bedeckt
Do, 29.02. 13:00 5.2° C bedeckt
Do, 29.02. 7:00 0.0° C Nebel
Ortszeit Temperatur Wetter
Sa, 02.03. 2:00 8.5° C bedeckt
Sa, 02.03. 1:50 8.5° C Dunst
Sa, 02.03. 1:40 8.5° C Sprühregen
Sa, 02.03. 1:30 8.7° C bewölkt
Sa, 02.03. 1:20 8.7° C Dunst
Sa, 02.03. 1:10 8.8° C bewölkt
Sa, 02.03. 1:00 8.9° C bedeckt
Sa, 02.03. 0:30 9.0° C bedeckt
Sa, 02.03. 0:00 8.9° C bedeckt
Fr, 01.03. 23:30 9.0° C bedeckt
Fr, 01.03. 23:00 9.1° C Sprühregen
Ortszeit Relative Feuchte Sichtweite
Sa, 02.03. 1:00 91% 12 km
Fr, 01.03. 19:00 76% 10 km
Fr, 01.03. 13:00 75% 17 km
Fr, 01.03. 7:00 84% 14 km
Fr, 01.03. 1:00 93% 7 km
Do, 29.02. 19:00 87% 10 km
Do, 29.02. 13:00 84% 20 km
Do, 29.02. 7:00 99% 0.3 km
Ortszeit Relative Feuchte Sichtweite
Sa, 02.03. 2:00 95% 5.0 km
Sa, 02.03. 1:50 95% -
Sa, 02.03. 1:40 95% -
Sa, 02.03. 1:30 93% 6 km
Sa, 02.03. 1:20 93% -
Sa, 02.03. 1:10 91% -
Sa, 02.03. 1:00 91% 12 km
Sa, 02.03. 0:30 90% 14 km
Sa, 02.03. 0:00 90% 14 km
Fr, 01.03. 23:30 89% 15 km
Fr, 01.03. 23:00 88% 13 km
Ortszeit Niederschlagsmenge Niederschlagsart
Sa, 02.03. 1:00 0.1 l/m2 in 6 Std. Regen
Fr, 01.03. 19:00 0.0 l/m2 in 12 Std. -
Fr, 01.03. 13:00 0.0 l/m2 in 6 Std. -
Fr, 01.03. 7:00 0.0 l/m2 in 12 Std. -
Fr, 01.03. 1:00 0.0 l/m2 in 6 Std. -
Do, 29.02. 19:00 0.0 l/m2 in 12 Std. -
Do, 29.02. 13:00 0.0 l/m2 in 6 Std. -
Do, 29.02. 7:00 0.0 l/m2 in 12 Std. -
Ortszeit Niederschlagsmenge Niederschlagsart
Sa, 02.03. 2:00 <0.05 l/m2 in 1 Std. Regen
Sa, 02.03. 1:50 keine Meldung -
Sa, 02.03. 1:40 keine Meldung -
Sa, 02.03. 1:30 <0.05 l/m2 in 30 Min Schneeregen
Sa, 02.03. 1:20 keine Meldung -
Sa, 02.03. 1:10 keine Meldung -
Sa, 02.03. 1:00 0.0 l/m2 in 1 Std. Regen
Sa, 02.03. 0:30 0.0 l/m2 in 30 Min -
Sa, 02.03. 0:00 <0.05 l/m2 in 1 Std. Sprühregen
Fr, 01.03. 23:30 <0.05 l/m2 in 30 Min Schnee
Fr, 01.03. 23:00 <0.05 l/m2 in 1 Std. Regen
Ortszeit Stärke Spitze Richtung
km/h Bft. km/h Grad Sektor
Sa, 02.03. 1:00 14 3 32 160° S
Fr, 01.03. 19:00 2 1 33 100° O
Fr, 01.03. 13:00 15 3 35 160° S
Fr, 01.03. 7:00 17 3 48 150° SO
Fr, 01.03. 1:00 6 1 26 150° SO
Do, 29.02. 19:00 7 2 36 160° S
Do, 29.02. 13:00 9 2 17 140° SO
Do, 29.02. 7:00 11 2 18 130° SO
Ortszeit Stärke Spitze Richtung
km/h Bft. km/h Grad Sektor
Sa, 02.03. 2:00 11 2 25 160° S
Sa, 02.03. 1:50 11 2 - 160° S
Sa, 02.03. 1:40 14 3 - 150° SO
Sa, 02.03. 1:30 17 3 26 160° S
Sa, 02.03. 1:20 17 3 - 160° S
Sa, 02.03. 1:10 13 3 - 160° S
Sa, 02.03. 1:00 14 3 29 160° S
Sa, 02.03. 0:30 19 3 30 160° S
Sa, 02.03. 0:00 17 3 33 150° SO
Fr, 01.03. 23:30 18 3 32 140° SO
Fr, 01.03. 23:00 18 3 32 150° SO
Ortszeit Untergrenze Bedeckung Gattung
total tief tief mittel hoch
Sa, 02.03. 1:00 240 m 8/8 8/8 - - -
Fr, 01.03. 19:00 1170 m 8/8 8/8 - - -
Fr, 01.03. 13:00 570 m 7/8 7/8 - - -
Fr, 01.03. 7:00 570 m 6/8 6/8 - - -
Fr, 01.03. 1:00 5700 m 6/8 6/8 - - -
Do, 29.02. 19:00 330 m 8/8 8/8 - - -
Do, 29.02. 13:00 540 m 8/8 8/8 - - -
Do, 29.02. 7:00 <30 m 8/8 0/8 - - -
Ortszeit Bedeckungsgrad in Achtel und Wolkenuntergrenze
Sa, 02.03. 2:00 6(180m) 7(330m) 8(510m)
Sa, 02.03. 1:50 6(180m) 7(330m) 8(510m)
Sa, 02.03. 1:40 8
Sa, 02.03. 1:30 7(210m)
Sa, 02.03. 1:20 7(210m)
Sa, 02.03. 1:10 7
Sa, 02.03. 1:00 7(240m) 8(330m)
Sa, 02.03. 0:30 5(240m) 8(450m)
Sa, 02.03. 0:00 6(300m) 7(540m) 8(2400m)
Fr, 01.03. 23:30 6(270m) 8(2100m) 8(2400m)
Fr, 01.03. 23:00 6(330m) 8(1800m) 8(2700m)
Ortszeit Luftdruck NN (hPa) Tendenz (hPa in 3 Std.)
Sa, 02.03. 1:00 1007 - 0,6
Fr, 01.03. 19:00 1007 + 0,2
Fr, 01.03. 13:00 1008 - 0,1
Fr, 01.03. 7:00 1008 + 0,4
Fr, 01.03. 1:00 1009 - 2,0
Do, 29.02. 19:00 1014 - 1,7
Do, 29.02. 13:00 1018 - 1,9
Do, 29.02. 7:00 1022 - 0,3
Ortszeit Luftdruck NN (hPa) Tendenz (hPa in 3 Std.)
Sa, 02.03. 2:00 1007 - 0,6
Sa, 02.03. 1:50 1007 keine Meldung
Sa, 02.03. 1:40 1007 keine Meldung
Sa, 02.03. 1:30 1007 - 0,6
Sa, 02.03. 1:20 1007 keine Meldung
Sa, 02.03. 1:10 1007 keine Meldung
Sa, 02.03. 1:00 1007 - 0,6
Sa, 02.03. 0:30 1007 - 0,5
Sa, 02.03. 0:00 1007 - 0,6
Fr, 01.03. 23:30 1007 - 0,7
Fr, 01.03. 23:00 1007 - 0,5
Ortszeit Schneehöhe (cm)
Sa, 02.03. 1:00 0
Fr, 01.03. 19:00 0
Fr, 01.03. 13:00 0
Fr, 01.03. 7:00 0
Fr, 01.03. 1:00 0
Do, 29.02. 19:00 0
Do, 29.02. 13:00 0
Do, 29.02. 7:00 0
Ortszeit Schneehöhe (cm)
Sa, 02.03. 2:00 0
Sa, 02.03. 1:50 0
Sa, 02.03. 1:40 -
Sa, 02.03. 1:30 0
Sa, 02.03. 1:20 0
Sa, 02.03. 1:10 -
Sa, 02.03. 1:00 0
Sa, 02.03. 0:30 0
Sa, 02.03. 0:00 0
Fr, 01.03. 23:30 0
Fr, 01.03. 23:00 0
Link zu dieser Seite / Seite empfehlen

Das Wetter in ...